createdAt,value
2022-11-12T00:01:30.281Z,8.63
2022-11-12T00:03:58.887Z,7.87
2022-11-12T00:06:27.465Z,8.60
2022-11-12T00:08:56.068Z,8.73
2022-11-12T00:11:24.595Z,8.07
2022-11-12T00:13:52.664Z,8.27
2022-11-12T00:16:22.709Z,8.87
2022-11-12T00:18:50.795Z,8.83
2022-11-12T00:21:18.920Z,9.37
2022-11-12T00:23:47.464Z,8.73
2022-11-12T00:26:15.583Z,8.67
2022-11-12T00:28:44.143Z,9.23
2022-11-12T00:31:13.846Z,8.27
2022-11-12T00:33:44.544Z,8.30
2022-11-12T00:36:13.241Z,8.30
2022-11-12T00:38:41.362Z,8.83
2022-11-12T00:41:09.963Z,8.17
2022-11-12T00:43:38.075Z,7.83
2022-11-12T00:46:06.851Z,8.17
2022-11-12T00:48:35.043Z,8.50
2022-11-12T00:51:06.924Z,7.83
2022-11-12T00:53:35.561Z,7.30
2022-11-12T00:56:06.992Z,7.73
2022-11-12T00:58:37.602Z,7.33
2022-11-12T01:01:10.658Z,7.57
2022-11-12T01:03:39.259Z,7.80
2022-11-12T01:06:12.376Z,8.20
2022-11-12T01:08:41.131Z,7.40
2022-11-12T01:11:12.241Z,8.13
2022-11-12T01:13:44.341Z,8.10
2022-11-12T01:16:15.452Z,7.80
2022-11-12T01:18:44.362Z,6.80
2022-11-12T01:21:15.153Z,6.27
2022-11-12T01:23:44.527Z,7.13
2022-11-12T01:26:14.848Z,7.30
2022-11-12T01:28:43.996Z,7.03
2022-11-12T01:31:14.915Z,8.10
2022-11-12T01:33:43.631Z,6.73
2022-11-12T01:36:14.396Z,7.23
2022-11-12T01:38:43.347Z,7.13
2022-11-12T01:41:13.995Z,7.20
2022-11-12T01:43:42.088Z,6.87
2022-11-12T01:46:16.059Z,7.20
2022-11-12T01:48:50.876Z,7.20
2022-11-12T01:51:21.896Z,8.23
2022-11-12T01:53:55.155Z,21.20
2022-11-12T01:56:25.018Z,17.03
2022-11-12T01:59:02.551Z,11.77
2022-11-12T02:01:31.576Z,9.73
2022-11-12T02:04:00.108Z,9.27
2022-11-12T02:06:30.137Z,7.77
2022-11-12T02:08:59.278Z,8.30
2022-11-12T02:11:27.888Z,6.90
2022-11-12T02:13:57.898Z,9.50
2022-11-12T02:16:28.740Z,8.07
2022-11-12T02:18:57.452Z,7.50
2022-11-12T02:21:28.268Z,7.53
2022-11-12T02:24:00.987Z,6.40
2022-11-12T02:26:33.355Z,6.83
2022-11-12T02:29:01.539Z,7.43
2022-11-12T02:31:30.456Z,7.90
2022-11-12T02:33:59.070Z,5.73
2022-11-12T02:36:29.156Z,5.60
2022-11-12T02:38:58.158Z,5.87
2022-11-12T02:41:26.735Z,5.90
2022-11-12T02:43:55.308Z,5.40
2022-11-12T02:46:23.774Z,5.87
2022-11-12T02:48:52.371Z,5.73
2022-11-12T02:51:20.451Z,6.03
2022-11-12T02:53:49.934Z,6.33
2022-11-12T02:56:18.541Z,6.47
2022-11-12T02:58:47.106Z,6.43
2022-11-12T03:01:15.724Z,6.73
2022-11-12T03:03:43.853Z,5.80
2022-11-12T03:06:12.446Z,5.77
2022-11-12T03:08:41.094Z,5.20
2022-11-12T03:11:12.000Z,5.57
2022-11-12T03:13:40.803Z,4.80
2022-11-12T03:16:10.224Z,5.23
2022-11-12T03:18:39.270Z,5.10
2022-11-12T03:21:08.272Z,5.73
2022-11-12T03:23:36.850Z,6.07
2022-11-12T03:26:05.885Z,5.77
2022-11-12T03:28:35.790Z,5.80
2022-11-12T03:31:04.103Z,6.43
2022-11-12T03:33:32.189Z,6.07
2022-11-12T03:36:00.781Z,5.70
2022-11-12T03:38:29.113Z,6.23
2022-11-12T03:40:58.037Z,6.67
2022-11-12T03:43:26.125Z,5.87
2022-11-12T03:45:56.077Z,7.00
2022-11-12T03:48:24.445Z,6.47
2022-11-12T03:50:53.340Z,8.33
2022-11-12T03:53:21.459Z,6.43
2022-11-12T03:55:50.064Z,6.53
2022-11-12T03:58:18.226Z,7.20
2022-11-12T04:00:46.887Z,6.53
2022-11-12T04:03:16.877Z,6.63
2022-11-12T04:06:02.322Z,7.60
2022-11-12T04:08:39.739Z,6.60
2022-11-12T04:11:13.009Z,7.43
2022-11-12T04:13:42.150Z,7.30
2022-11-12T04:16:30.045Z,7.10
2022-11-12T04:19:18.690Z,6.13
2022-11-12T04:21:57.255Z,6.63
2022-11-12T04:24:45.432Z,6.97
2022-11-12T04:27:17.161Z,6.93
2022-11-12T04:30:04.559Z,6.67
2022-11-12T04:32:35.213Z,6.80
2022-11-12T04:35:05.718Z,5.83
2022-11-12T04:37:45.726Z,6.77
2022-11-12T04:40:37.796Z,6.73
2022-11-12T04:43:24.674Z,7.03
2022-11-12T04:45:54.816Z,7.23
2022-11-12T04:48:25.534Z,7.20
2022-11-12T04:50:57.854Z,6.70
2022-11-12T04:53:26.720Z,7.47
2022-11-12T04:55:56.671Z,6.33
2022-11-12T04:58:26.003Z,6.77
2022-11-12T05:00:54.554Z,5.87
2022-11-12T05:03:23.264Z,6.43
2022-11-12T05:05:51.411Z,5.73
2022-11-12T05:08:21.341Z,6.60
2022-11-12T05:10:49.428Z,9.77
2022-11-12T05:13:17.572Z,17.80
2022-11-12T05:15:45.797Z,7.10
2022-11-12T05:18:14.351Z,13.53
2022-11-12T05:20:42.475Z,14.67
2022-11-12T05:23:11.054Z,28.53
2022-11-12T05:25:41.030Z,14.33
2022-11-12T05:28:09.106Z,11.83
2022-11-12T05:30:37.660Z,14.93
2022-11-12T05:33:05.742Z,10.63
2022-11-12T05:35:34.287Z,6.93
2022-11-12T05:38:02.344Z,9.60
2022-11-12T05:40:30.886Z,8.23
2022-11-12T05:43:00.378Z,5.77
2022-11-12T05:45:28.941Z,6.27
2022-11-12T05:47:57.540Z,5.60
2022-11-12T05:50:28.208Z,5.13
2022-11-12T05:53:03.257Z,6.13
2022-11-12T05:55:36.897Z,5.33
2022-11-12T05:58:08.500Z,5.50
2022-11-12T06:00:39.079Z,5.40
2022-11-12T06:03:07.652Z,5.97
2022-11-12T06:05:36.724Z,6.00
2022-11-12T06:08:07.219Z,5.87
2022-11-12T06:10:35.320Z,6.23
2022-11-12T06:13:03.911Z,7.40
2022-11-12T06:15:38.990Z,6.93
2022-11-12T06:18:08.066Z,6.70
2022-11-12T06:20:36.879Z,7.23
2022-11-12T06:23:05.158Z,6.60
2022-11-12T06:25:36.905Z,7.27
2022-11-12T06:28:05.215Z,6.23
2022-11-12T06:30:35.190Z,7.00
2022-11-12T06:33:03.753Z,7.00
2022-11-12T06:35:31.863Z,6.60
2022-11-12T06:38:00.000Z,6.00
2022-11-12T06:40:28.115Z,6.37
2022-11-12T06:42:59.010Z,6.33
2022-11-12T06:45:27.894Z,5.57
2022-11-12T06:48:00.809Z,6.80
2022-11-12T06:50:28.924Z,6.23
2022-11-12T06:53:00.232Z,6.00
2022-11-12T06:55:28.836Z,5.37
2022-11-12T06:57:56.986Z,4.90
2022-11-12T07:00:25.630Z,5.40
2022-11-12T07:02:54.222Z,5.33
2022-11-12T07:05:23.650Z,5.50
2022-11-12T07:07:51.760Z,6.27
2022-11-12T07:10:20.008Z,5.57
2022-11-12T07:12:53.147Z,5.30
2022-11-12T07:15:21.693Z,5.00
2022-11-12T07:17:50.269Z,6.00
2022-11-12T07:20:18.916Z,5.23
2022-11-12T07:22:48.451Z,5.03
2022-11-12T07:25:17.086Z,5.30
2022-11-12T07:27:45.185Z,5.47
2022-11-12T07:30:14.364Z,5.03
2022-11-12T07:32:46.145Z,5.43
2022-11-12T07:35:18.246Z,5.53
2022-11-12T07:37:46.312Z,5.77
2022-11-12T07:40:16.891Z,4.90
2022-11-12T07:42:45.075Z,6.10
2022-11-12T07:45:13.141Z,5.90
2022-11-12T07:47:41.773Z,7.20
2022-11-12T07:50:11.280Z,10.23
2022-11-12T07:52:39.348Z,6.77
2022-11-12T07:55:08.201Z,6.53
2022-11-12T07:57:38.273Z,5.47
2022-11-12T08:00:08.087Z,5.60
2022-11-12T08:02:36.749Z,5.77
2022-11-12T08:05:10.145Z,5.17
2022-11-12T08:07:42.418Z,4.93
2022-11-12T08:10:12.020Z,5.47
2022-11-12T08:12:41.458Z,8.73
2022-11-12T08:15:10.089Z,9.43
2022-11-12T08:17:40.538Z,6.90
2022-11-12T08:20:09.632Z,7.00
2022-11-12T08:22:37.677Z,7.03
2022-11-12T08:25:07.074Z,10.37
2022-11-12T08:27:35.674Z,14.90
2022-11-12T08:30:06.333Z,23.40
2022-11-12T08:32:34.417Z,27.30
2022-11-12T08:35:02.653Z,29.77
2022-11-12T08:37:30.742Z,28.90
2022-11-12T08:39:59.288Z,22.23
2022-11-12T08:42:27.353Z,14.87
2022-11-12T08:44:55.949Z,10.53
2022-11-12T08:47:25.950Z,10.63
2022-11-12T08:49:54.053Z,9.73
2022-11-12T08:52:22.233Z,8.73
2022-11-12T08:54:50.300Z,8.40
2022-11-12T08:57:18.885Z,8.77
2022-11-12T08:59:47.006Z,8.83
2022-11-12T09:02:15.675Z,9.73
2022-11-12T09:04:46.202Z,9.60
2022-11-12T09:07:43.306Z,8.67
2022-11-12T09:10:03.053Z,10.53
2022-11-12T09:12:31.425Z,8.77
2022-11-12T09:15:30.677Z,9.20
2022-11-12T09:17:48.153Z,9.10
2022-11-12T09:20:18.266Z,10.13
2022-11-12T09:22:46.356Z,9.60
2022-11-12T09:25:15.115Z,9.17
2022-11-12T09:27:48.323Z,10.83
2022-11-12T09:30:17.557Z,8.10
2022-11-12T09:32:46.164Z,8.57
2022-11-12T09:35:14.309Z,7.57
2022-11-12T09:37:44.585Z,9.40
2022-11-12T09:40:19.271Z,7.27
2022-11-12T09:42:52.901Z,7.63
2022-11-12T09:45:29.684Z,7.03
2022-11-12T09:48:02.930Z,8.00
2022-11-12T09:50:33.627Z,7.13
2022-11-12T09:53:10.173Z,7.13
2022-11-12T09:55:42.106Z,7.47
2022-11-12T09:58:13.477Z,7.93
2022-11-12T10:00:45.214Z,7.67
2022-11-12T10:03:25.003Z,7.67
2022-11-12T10:05:59.980Z,7.33
2022-11-12T10:08:41.387Z,7.93
2022-11-12T10:11:52.930Z,6.93
2022-11-12T10:14:31.544Z,7.40
2022-11-12T10:17:09.215Z,8.03
2022-11-12T10:19:55.618Z,6.97
2022-11-12T10:22:41.862Z,7.20
2022-11-12T10:25:16.772Z,7.88
2022-11-12T10:27:46.448Z,7.50
2022-11-12T10:30:18.015Z,7.83
2022-11-12T10:32:47.997Z,7.07
2022-11-12T10:35:18.925Z,9.02
2022-11-12T10:37:51.812Z,7.93
2022-11-12T10:40:35.613Z,7.85
2022-11-12T10:43:06.546Z,8.18
2022-11-12T10:45:34.763Z,9.20
2022-11-12T10:48:02.861Z,8.17
2022-11-12T10:50:36.141Z,7.80
2022-11-12T10:53:06.047Z,7.78
2022-11-12T10:55:38.133Z,7.25
2022-11-12T10:58:19.607Z,7.35
2022-11-12T11:01:05.209Z,7.60
2022-11-12T11:03:37.393Z,7.65
2022-11-12T11:06:07.961Z,7.88
2022-11-12T11:08:39.883Z,7.47
2022-11-12T11:11:28.216Z,8.35
2022-11-12T11:13:59.117Z,7.07
2022-11-12T11:16:30.467Z,7.45
2022-11-12T11:19:01.123Z,7.05
2022-11-12T11:21:55.874Z,7.40
2022-11-12T11:24:40.854Z,6.95
2022-11-12T11:27:20.910Z,7.05
2022-11-12T11:30:04.949Z,7.60
2022-11-12T11:32:55.886Z,7.57
2022-11-12T11:35:30.390Z,7.57
2022-11-12T11:38:21.625Z,6.85
2022-11-12T11:40:58.312Z,7.80
2022-11-12T11:43:55.641Z,6.97
2022-11-12T11:46:43.833Z,6.95
2022-11-12T11:49:51.275Z,7.57
2022-11-12T11:52:41.056Z,8.20
2022-11-12T11:55:41.280Z,8.23
2022-11-12T11:58:33.581Z,8.05
2022-11-12T12:01:12.943Z,8.75
2022-11-12T12:03:56.253Z,7.18
2022-11-12T12:06:27.322Z,8.80
2022-11-12T12:09:18.479Z,8.65
2022-11-12T12:11:56.485Z,8.10
2022-11-12T12:14:43.956Z,8.45
2022-11-12T12:17:27.908Z,7.43
2022-11-12T12:20:06.307Z,8.48
2022-11-12T12:22:40.248Z,8.00
2022-11-12T12:25:15.385Z,9.30
2022-11-12T12:27:50.124Z,7.72
2022-11-12T12:30:22.035Z,18.77
2022-11-12T12:32:58.617Z,8.05
2022-11-12T12:35:31.796Z,7.78
2022-11-12T12:38:11.934Z,7.72
2022-11-12T12:40:45.841Z,7.70
2022-11-12T12:43:19.504Z,7.25
2022-11-12T12:45:48.538Z,7.72
2022-11-12T12:48:22.072Z,7.60
2022-11-12T12:50:52.711Z,7.43
2022-11-12T12:53:34.605Z,8.07
2022-11-12T12:56:05.156Z,6.93
2022-11-12T12:58:34.885Z,7.60
2022-11-12T13:01:08.415Z,8.77
2022-11-12T13:04:01.006Z,7.85
2022-11-12T13:06:33.042Z,6.55
2022-11-12T13:09:04.546Z,7.30
2022-11-12T13:12:08.699Z,6.75
2022-11-12T13:15:08.977Z,6.93
2022-11-12T13:17:52.813Z,5.93
2022-11-12T13:20:40.744Z,6.13
2022-11-12T13:23:31.723Z,6.43
2022-11-12T13:26:33.166Z,5.97
2022-11-12T13:29:20.223Z,5.97
2022-11-12T13:31:48.452Z,6.22
2022-11-12T13:34:28.441Z,6.20
2022-11-12T13:37:02.730Z,5.95
2022-11-12T13:39:36.713Z,6.80
2022-11-12T13:42:32.086Z,6.80
2022-11-12T13:45:01.566Z,6.32
2022-11-12T13:47:30.664Z,5.90
2022-11-12T13:50:02.537Z,6.00
2022-11-12T13:52:33.014Z,6.15
2022-11-12T13:55:06.631Z,5.95
2022-11-12T13:57:34.746Z,6.95
2022-11-12T14:00:27.145Z,6.20
2022-11-12T14:02:59.350Z,6.20
2022-11-12T14:05:30.099Z,6.05
2022-11-12T14:08:24.806Z,6.90
2022-11-12T14:11:07.781Z,8.93
2022-11-12T14:13:54.776Z,9.40
2022-11-12T14:16:39.590Z,8.88
2022-11-12T14:19:41.773Z,7.75
2022-11-12T14:22:16.906Z,8.10
2022-11-12T14:24:48.742Z,7.32
2022-11-12T14:27:34.865Z,7.53
2022-11-12T14:30:12.641Z,6.80
2022-11-12T14:32:42.768Z,7.18
2022-11-12T14:35:29.978Z,6.95
2022-11-12T14:38:01.809Z,6.80
2022-11-12T14:40:33.887Z,6.85
2022-11-12T14:43:02.505Z,6.55
2022-11-12T14:45:35.097Z,6.45
2022-11-12T14:48:03.519Z,6.65
2022-11-12T14:50:40.298Z,7.75
2022-11-12T14:53:15.413Z,7.38
2022-11-12T14:55:51.424Z,7.30
2022-11-12T14:58:21.860Z,8.07
2022-11-12T15:00:52.717Z,6.60
2022-11-12T15:03:24.405Z,7.78
2022-11-12T15:06:07.791Z,8.52
2022-11-12T15:08:38.203Z,8.23
2022-11-12T15:11:25.320Z,9.25
2022-11-12T15:13:56.354Z,8.98
2022-11-12T15:16:27.730Z,9.93
2022-11-12T15:19:19.506Z,9.57
2022-11-12T15:21:50.129Z,8.70
2022-11-12T15:24:21.910Z,9.35
2022-11-12T15:26:52.254Z,9.07
2022-11-12T15:29:28.268Z,9.98
2022-11-12T15:31:59.001Z,9.68
2022-11-12T15:34:45.816Z,10.15
2022-11-12T15:37:24.324Z,9.57
2022-11-12T15:39:55.258Z,10.13
2022-11-12T15:42:29.207Z,10.48
2022-11-12T15:45:03.566Z,12.57
2022-11-12T15:47:32.135Z,12.43
2022-11-12T15:50:01.147Z,10.98
2022-11-12T15:52:29.301Z,11.52
2022-11-12T15:54:57.909Z,11.98
2022-11-12T15:57:31.161Z,12.07
2022-11-12T16:00:07.884Z,12.27
2022-11-12T16:02:37.181Z,11.52
2022-11-12T16:05:05.996Z,12.38
2022-11-12T16:07:34.125Z,13.80
2022-11-12T16:10:02.572Z,12.52
2022-11-12T16:12:32.883Z,12.20
2022-11-12T16:15:02.621Z,12.63
2022-11-12T16:17:31.283Z,13.30
2022-11-12T16:20:00.800Z,15.00
2022-11-12T16:22:28.919Z,15.52
2022-11-12T16:24:57.464Z,14.48
2022-11-12T16:27:26.594Z,15.20
2022-11-12T16:29:56.030Z,15.20
2022-11-12T16:32:24.672Z,15.77
2022-11-12T16:34:56.987Z,15.63
2022-11-12T16:37:28.559Z,15.97
2022-11-12T16:39:56.681Z,16.48
2022-11-12T16:42:25.384Z,16.05
2022-11-12T16:44:55.359Z,16.53
2022-11-12T16:47:23.398Z,15.93
2022-11-12T16:49:51.920Z,17.73
2022-11-12T16:52:20.622Z,19.70
2022-11-12T16:54:48.722Z,20.70
2022-11-12T16:57:16.816Z,19.67
2022-11-12T16:59:45.470Z,20.37
2022-11-12T17:02:17.105Z,17.08
2022-11-12T17:04:45.138Z,17.80
2022-11-12T17:07:13.756Z,17.70
2022-11-12T17:09:41.835Z,19.20
2022-11-12T17:12:10.546Z,17.57
2022-11-12T17:14:39.189Z,18.07
2022-11-12T17:17:07.406Z,16.27
2022-11-12T17:19:37.353Z,15.47
2022-11-12T17:22:05.660Z,12.55
2022-11-12T17:24:34.250Z,13.75
2022-11-12T17:27:03.070Z,13.87
2022-11-12T17:29:31.192Z,13.43
2022-11-12T17:31:59.267Z,14.23
2022-11-12T17:34:27.880Z,12.73
2022-11-12T17:36:57.359Z,13.37
2022-11-12T17:39:25.957Z,12.93
2022-11-12T17:41:54.594Z,13.83
2022-11-12T17:44:23.194Z,11.90
2022-11-12T17:46:51.905Z,11.57
2022-11-12T17:49:20.374Z,11.47
2022-11-12T17:51:49.054Z,12.33
2022-11-12T17:54:18.496Z,11.40
2022-11-12T17:56:47.179Z,11.07
2022-11-12T17:59:15.282Z,11.47
2022-11-12T18:01:43.469Z,12.40
2022-11-12T18:04:13.230Z,12.70
2022-11-12T18:06:42.364Z,12.30
2022-11-12T18:09:14.862Z,12.97
2022-11-12T18:11:47.246Z,12.70
2022-11-12T18:14:15.568Z,12.70
2022-11-12T18:16:44.530Z,13.97
2022-11-12T18:19:15.297Z,13.17
2022-11-12T18:21:43.897Z,14.80
2022-11-12T18:24:15.943Z,12.57
2022-11-12T18:26:45.421Z,13.20
2022-11-12T18:29:13.698Z,12.53
2022-11-12T18:31:42.414Z,12.23
2022-11-12T18:34:12.197Z,13.23
2022-11-12T18:36:40.771Z,12.80
2022-11-12T18:39:09.577Z,12.50
2022-11-12T18:41:38.316Z,11.63
2022-11-12T18:44:07.866Z,10.67
2022-11-12T18:46:36.148Z,11.00
2022-11-12T18:49:04.765Z,11.43
2022-11-12T18:51:33.364Z,9.97
2022-11-12T18:54:01.491Z,9.90
2022-11-12T18:56:29.577Z,11.07
2022-11-12T18:58:58.195Z,8.83
2022-11-12T19:01:27.684Z,10.63
2022-11-12T19:03:57.828Z,10.43
2022-11-12T19:06:26.829Z,9.30
2022-11-12T19:09:00.648Z,9.43
2022-11-12T19:11:29.555Z,10.57
2022-11-12T19:13:57.970Z,9.70
2022-11-12T19:16:27.932Z,9.57
2022-11-12T19:18:56.006Z,10.27
2022-11-12T19:21:26.416Z,9.97
2022-11-12T19:23:55.639Z,10.20
2022-11-12T19:26:25.146Z,10.47
2022-11-12T19:28:53.667Z,10.23
2022-11-12T19:31:24.338Z,11.00
2022-11-12T19:33:53.952Z,10.47
2022-11-12T19:36:24.014Z,10.63
2022-11-12T19:38:56.742Z,11.00
2022-11-12T19:41:25.452Z,10.70
2022-11-12T19:43:54.404Z,11.90
2022-11-12T19:46:22.483Z,12.03
2022-11-12T19:48:51.644Z,13.87
2022-11-12T19:51:21.140Z,15.50
2022-11-12T19:53:49.327Z,19.83
2022-11-12T19:56:19.283Z,17.73
2022-11-12T19:58:48.489Z,18.50
2022-11-12T20:01:19.320Z,19.13
2022-11-12T20:03:48.045Z,16.37
2022-11-12T20:06:18.185Z,16.73
2022-11-12T20:08:47.915Z,16.23
2022-11-12T20:11:18.425Z,15.97
2022-11-12T20:13:46.541Z,14.80
2022-11-12T20:16:20.781Z,15.30
2022-11-12T20:18:55.989Z,13.93
2022-11-12T20:21:24.477Z,13.87
2022-11-12T20:23:54.040Z,13.20
2022-11-12T20:26:22.190Z,13.57
2022-11-12T20:28:50.298Z,13.07
2022-11-12T20:31:21.049Z,15.13
2022-11-12T20:33:50.988Z,13.47
2022-11-12T20:36:21.324Z,14.10
2022-11-12T20:38:51.022Z,14.57
2022-11-12T20:41:23.155Z,13.97
2022-11-12T20:43:53.915Z,14.37
2022-11-12T20:46:22.466Z,15.97
2022-11-12T20:48:51.116Z,16.07
2022-11-12T20:51:24.367Z,16.77
2022-11-12T20:53:59.292Z,26.87
2022-11-12T20:56:31.408Z,93.83
2022-11-12T20:59:00.428Z,132.60
2022-11-12T21:01:30.304Z,277.33
2022-11-12T21:03:59.861Z,317.83
2022-11-12T21:06:29.415Z,182.47
2022-11-12T21:09:00.880Z,91.07
2022-11-12T21:11:30.450Z,60.07
2022-11-12T21:14:01.215Z,43.30
2022-11-12T21:16:29.804Z,34.40
2022-11-12T21:19:01.812Z,26.50
2022-11-12T21:21:31.579Z,27.80
2022-11-12T21:24:04.679Z,23.37
2022-11-12T21:26:35.363Z,20.67
2022-11-12T21:29:04.677Z,25.40
2022-11-12T21:31:33.303Z,23.70
2022-11-12T21:34:04.281Z,27.23
2022-11-12T21:36:34.769Z,20.30
2022-11-12T21:39:03.332Z,29.20
2022-11-12T21:41:32.595Z,22.47
2022-11-12T21:44:02.052Z,25.03
2022-11-12T21:46:32.637Z,16.70
2022-11-12T21:49:00.718Z,15.97
2022-11-12T21:51:30.911Z,15.93
2022-11-12T21:54:01.353Z,19.90
2022-11-12T21:56:33.862Z,22.47
2022-11-12T21:59:04.429Z,14.03
2022-11-12T22:01:34.605Z,25.40
2022-11-12T22:04:06.637Z,13.47
2022-11-12T22:06:38.598Z,19.03
2022-11-12T22:09:07.687Z,18.30
2022-11-12T22:11:35.888Z,21.80
2022-11-12T22:14:05.539Z,29.07
2022-11-12T22:16:34.373Z,42.27
2022-11-12T22:19:02.971Z,16.43
2022-11-12T22:21:39.487Z,20.17
2022-11-12T22:24:08.839Z,19.27
2022-11-12T22:26:37.016Z,11.57
2022-11-12T22:29:07.128Z,30.27
2022-11-12T22:31:35.886Z,12.20
2022-11-12T22:34:04.550Z,10.73
2022-11-12T22:36:33.022Z,13.57
2022-11-12T22:39:01.128Z,10.47
2022-11-12T22:41:31.117Z,10.63
2022-11-12T22:44:01.431Z,12.33
2022-11-12T22:46:33.987Z,14.77
2022-11-12T22:49:02.892Z,15.97
2022-11-12T22:51:33.186Z,12.27
2022-11-12T22:54:06.645Z,13.17
2022-11-12T22:56:35.109Z,10.07
2022-11-12T22:59:04.855Z,17.03
2022-11-12T23:01:36.482Z,10.17
2022-11-12T23:04:06.809Z,11.43
2022-11-12T23:06:35.374Z,19.60
2022-11-12T23:09:03.518Z,11.20
2022-11-12T23:11:32.389Z,10.73
2022-11-12T23:14:00.509Z,13.87
2022-11-12T23:16:31.688Z,11.67
2022-11-12T23:19:01.227Z,9.10
2022-11-12T23:21:31.395Z,9.50
2022-11-12T23:24:00.047Z,11.63
2022-11-12T23:26:31.497Z,13.60
2022-11-12T23:28:59.609Z,8.27
2022-11-12T23:31:29.468Z,11.03
2022-11-12T23:34:01.174Z,14.57
2022-11-12T23:36:30.264Z,9.17
2022-11-12T23:38:59.719Z,8.23
2022-11-12T23:41:28.923Z,9.80
2022-11-12T23:43:58.753Z,9.20
2022-11-12T23:46:27.394Z,9.30
2022-11-12T23:48:55.484Z,11.60
2022-11-12T23:51:25.512Z,13.47
2022-11-12T23:53:53.621Z,8.50
2022-11-12T23:56:22.244Z,9.43
2022-11-12T23:58:50.338Z,9.57
